createdAt,value
2019-02-09T00:00:50.178Z,99.90
2019-02-09T00:03:19.172Z,99.90
2019-02-09T00:05:47.859Z,99.90
2019-02-09T00:08:16.538Z,99.90
2019-02-09T00:10:44.980Z,99.90
2019-02-09T00:13:13.450Z,99.90
2019-02-09T00:15:42.302Z,99.90
2019-02-09T00:18:10.929Z,99.90
2019-02-09T00:20:39.863Z,99.90
2019-02-09T00:23:08.609Z,99.90
2019-02-09T00:25:37.058Z,99.90
2019-02-09T00:28:06.025Z,99.90
2019-02-09T00:30:34.617Z,99.90
2019-02-09T00:33:03.025Z,99.90
2019-02-09T00:35:31.531Z,99.90
2019-02-09T00:38:00.252Z,99.90
2019-02-09T00:40:29.841Z,99.90
2019-02-09T00:42:58.316Z,99.90
2019-02-09T00:45:27.705Z,99.90
2019-02-09T00:47:56.405Z,99.90
2019-02-09T00:50:24.937Z,99.90
2019-02-09T00:52:53.421Z,99.90
2019-02-09T00:55:26.986Z,99.90
2019-02-09T00:57:56.203Z,99.90
2019-02-09T01:00:32.084Z,99.90
2019-02-09T01:03:01.136Z,99.90
2019-02-09T01:05:38.173Z,99.90
2019-02-09T01:08:07.142Z,99.90
2019-02-09T01:10:36.129Z,99.90
2019-02-09T01:13:05.299Z,99.90
2019-02-09T01:15:34.275Z,99.90
2019-02-09T01:18:02.683Z,99.90
2019-02-09T01:20:31.470Z,99.90
2019-02-09T01:23:00.866Z,99.90
2019-02-09T01:25:29.857Z,99.90
2019-02-09T01:27:58.651Z,99.90
2019-02-09T01:30:28.401Z,99.90
2019-02-09T01:32:56.830Z,99.90
2019-02-09T01:35:25.980Z,99.90
2019-02-09T01:37:55.031Z,99.90
2019-02-09T01:40:28.419Z,99.90
2019-02-09T01:42:57.094Z,99.90
2019-02-09T01:45:27.733Z,99.90
2019-02-09T01:47:56.618Z,99.90
2019-02-09T01:50:26.862Z,99.90
2019-02-09T01:52:55.940Z,99.90
2019-02-09T01:55:26.058Z,99.90
2019-02-09T01:57:54.572Z,99.90
2019-02-09T02:00:26.333Z,99.90
2019-02-09T02:02:55.403Z,99.90
2019-02-09T02:05:25.286Z,99.90
2019-02-09T02:07:54.299Z,99.90
2019-02-09T02:10:25.643Z,99.90
2019-02-09T02:12:54.350Z,99.90
2019-02-09T02:15:23.440Z,99.90
2019-02-09T02:17:51.882Z,99.90
2019-02-09T02:20:25.679Z,99.90
2019-02-09T02:22:54.353Z,99.90
2019-02-09T02:25:23.720Z,99.90
2019-02-09T02:27:52.336Z,99.90
2019-02-09T02:30:28.922Z,99.90
2019-02-09T02:32:57.757Z,99.90
2019-02-09T02:35:26.335Z,99.90
2019-02-09T02:37:54.931Z,99.90
2019-02-09T02:40:23.959Z,99.90
2019-02-09T02:42:52.785Z,99.90
2019-02-09T02:45:40.593Z,99.90
2019-02-09T02:48:09.259Z,99.90
2019-02-09T02:50:37.669Z,99.90
2019-02-09T02:53:06.642Z,99.90
2019-02-09T02:55:35.212Z,99.90
2019-02-09T02:58:04.276Z,99.90
2019-02-09T03:00:33.754Z,99.90
2019-02-09T03:03:02.998Z,99.90
2019-02-09T03:05:31.879Z,99.90
2019-02-09T03:08:00.571Z,99.90
2019-02-09T03:10:29.656Z,99.90
2019-02-09T03:12:58.053Z,99.90
2019-02-09T03:15:34.053Z,99.90
2019-02-09T03:18:02.564Z,99.90
2019-02-09T03:20:31.735Z,99.90
2019-02-09T03:23:00.251Z,99.90
2019-02-09T03:25:34.346Z,99.90
2019-02-09T03:28:02.824Z,99.90
2019-02-09T03:30:45.688Z,99.90
2019-02-09T03:33:01.969Z,99.90
2019-02-09T03:35:31.147Z,99.90
2019-02-09T03:38:01.690Z,99.90
2019-02-09T03:40:30.123Z,99.90
2019-02-09T03:42:58.585Z,99.90
2019-02-09T03:45:31.948Z,99.90
2019-02-09T03:48:02.376Z,99.90
2019-02-09T03:50:32.969Z,99.90
2019-02-09T03:53:01.848Z,99.90
2019-02-09T03:55:30.487Z,99.90
2019-02-09T03:57:59.235Z,99.90
2019-02-09T04:00:29.855Z,99.90
2019-02-09T04:02:59.278Z,99.90
2019-02-09T04:05:27.819Z,99.90
2019-02-09T04:07:57.234Z,99.90
2019-02-09T04:10:27.535Z,99.90
2019-02-09T04:12:56.344Z,99.90
2019-02-09T04:15:29.162Z,99.90
2019-02-09T04:17:57.668Z,99.90
2019-02-09T04:20:27.122Z,99.90
2019-02-09T04:22:55.909Z,99.90
2019-02-09T04:25:24.911Z,99.90
2019-02-09T04:27:53.654Z,99.90
2019-02-09T04:30:27.448Z,99.90
2019-02-09T04:32:56.194Z,99.90
2019-02-09T04:35:25.180Z,99.90
2019-02-09T04:37:54.073Z,99.90
2019-02-09T04:40:25.131Z,99.90
2019-02-09T04:42:53.599Z,99.90
2019-02-09T04:45:22.404Z,99.90
2019-02-09T04:47:50.849Z,99.90
2019-02-09T04:50:19.848Z,99.90
2019-02-09T04:52:48.421Z,99.90
2019-02-09T04:55:25.361Z,99.90
2019-02-09T04:57:53.880Z,99.90
2019-02-09T05:00:30.869Z,99.90
2019-02-09T05:02:59.978Z,99.90
2019-02-09T05:05:29.368Z,99.90
2019-02-09T05:07:58.181Z,99.90
2019-02-09T05:10:26.759Z,99.90
2019-02-09T05:12:55.163Z,99.90
2019-02-09T05:15:24.134Z,99.90
2019-02-09T05:17:53.102Z,99.90
2019-02-09T05:20:24.765Z,99.90
2019-02-09T05:22:56.395Z,99.90
2019-02-09T05:25:25.237Z,99.90
2019-02-09T05:27:54.015Z,99.90
2019-02-09T05:30:25.215Z,99.90
2019-02-09T05:32:54.144Z,99.90
2019-02-09T05:35:23.006Z,99.90
2019-02-09T05:37:51.833Z,99.90
2019-02-09T05:40:22.420Z,99.90
2019-02-09T05:42:51.022Z,99.90
2019-02-09T05:45:22.193Z,99.30
2019-02-09T05:47:51.158Z,99.40
2019-02-09T05:50:20.680Z,99.30
2019-02-09T05:52:49.551Z,99.60
2019-02-09T05:55:19.635Z,99.50
2019-02-09T05:57:48.446Z,99.30
2019-02-09T06:00:21.454Z,98.90
2019-02-09T06:02:49.890Z,98.70
2019-02-09T06:05:18.374Z,98.70
2019-02-09T06:07:47.079Z,98.70
2019-02-09T06:10:17.718Z,98.30
2019-02-09T06:12:46.507Z,98.30
2019-02-09T06:15:26.049Z,98.60
2019-02-09T06:17:54.825Z,98.50
2019-02-09T06:20:28.740Z,98.70
2019-02-09T06:22:57.424Z,98.90
2019-02-09T06:25:26.271Z,99.00
2019-02-09T06:27:55.211Z,98.80
2019-02-09T06:30:31.485Z,99.00
2019-02-09T06:33:00.434Z,99.10
2019-02-09T06:35:29.656Z,98.80
2019-02-09T06:37:58.419Z,99.00
2019-02-09T06:40:27.071Z,98.90
2019-02-09T06:42:56.004Z,99.00
2019-02-09T06:45:27.775Z,99.10
2019-02-09T06:48:23.697Z,98.90
2019-02-09T06:50:52.278Z,98.80
2019-02-09T06:53:20.711Z,98.70
2019-02-09T06:55:49.440Z,98.40
2019-02-09T06:58:18.230Z,98.60
2019-02-09T07:00:46.787Z,98.00
2019-02-09T07:03:15.503Z,97.80
2019-02-09T07:05:44.138Z,97.70
2019-02-09T07:08:13.186Z,97.20
2019-02-09T07:10:41.588Z,97.10
2019-02-09T07:13:10.271Z,96.70
2019-02-09T07:15:39.229Z,96.80
2019-02-09T07:18:11.126Z,96.70
2019-02-09T07:20:39.894Z,96.40
2019-02-09T07:23:08.874Z,96.60
2019-02-09T07:25:37.606Z,96.70
2019-02-09T07:28:06.250Z,96.60
2019-02-09T07:30:36.542Z,96.40
2019-02-09T07:33:07.290Z,96.50
2019-02-09T07:35:36.387Z,96.40
2019-02-09T07:38:05.336Z,96.50
2019-02-09T07:40:34.138Z,96.20
2019-02-09T07:43:02.999Z,96.20
2019-02-09T07:45:33.383Z,96.30
2019-02-09T07:48:02.105Z,96.20
2019-02-09T07:50:31.069Z,96.10
2019-02-09T07:52:59.489Z,96.00
2019-02-09T07:55:28.635Z,95.90
2019-02-09T07:57:57.124Z,95.50
2019-02-09T08:00:33.114Z,95.50
2019-02-09T08:03:02.515Z,95.10
2019-02-09T08:05:34.602Z,95.10
2019-02-09T08:08:04.851Z,94.80
2019-02-09T08:10:35.666Z,94.70
2019-02-09T08:13:06.809Z,94.60
2019-02-09T08:15:35.904Z,94.60
2019-02-09T08:18:06.720Z,94.40
2019-02-09T08:20:35.458Z,94.30
2019-02-09T08:23:07.130Z,94.00
2019-02-09T08:25:37.390Z,94.00
2019-02-09T08:28:08.319Z,93.90
2019-02-09T08:30:40.007Z,93.80
2019-02-09T08:33:08.993Z,94.00
2019-02-09T08:35:37.595Z,93.90
2019-02-09T08:38:07.331Z,94.30
2019-02-09T08:40:36.103Z,94.20
2019-02-09T08:43:05.363Z,94.40
2019-02-09T08:45:34.215Z,94.30
2019-02-09T08:48:03.081Z,94.40
2019-02-09T08:50:40.698Z,94.30
2019-02-09T08:53:09.402Z,94.30
2019-02-09T08:55:38.145Z,94.20
2019-02-09T08:58:07.041Z,94.40
2019-02-09T09:00:37.294Z,94.20
2019-02-09T09:03:06.350Z,94.40
2019-02-09T09:05:35.447Z,94.50
2019-02-09T09:08:04.893Z,94.40
2019-02-09T09:10:33.538Z,94.60
2019-02-09T09:13:02.752Z,94.50
2019-02-09T09:15:36.704Z,94.60
2019-02-09T09:18:06.542Z,94.60
2019-02-09T09:20:40.627Z,94.70
2019-02-09T09:23:09.297Z,94.40
2019-02-09T09:25:37.720Z,93.20
2019-02-09T09:28:06.731Z,92.40
2019-02-09T09:30:36.023Z,92.40
2019-02-09T09:33:06.029Z,92.30
2019-02-09T09:35:35.255Z,92.20
2019-02-09T09:38:04.134Z,91.80
2019-02-09T09:40:38.265Z,91.40
2019-02-09T09:43:07.546Z,91.80
2019-02-09T09:45:38.095Z,92.00
2019-02-09T09:48:08.447Z,92.20
2019-02-09T09:50:37.235Z,92.10
2019-02-09T09:53:06.373Z,92.10
2019-02-09T09:55:35.365Z,92.30
2019-02-09T09:58:04.862Z,92.20
2019-02-09T10:00:33.763Z,92.40
2019-02-09T10:03:02.495Z,93.10
2019-02-09T10:05:30.981Z,95.50
2019-02-09T10:07:59.621Z,96.30
2019-02-09T10:10:28.406Z,96.50
2019-02-09T10:12:56.890Z,96.00
2019-02-09T10:15:28.943Z,95.80
2019-02-09T10:17:57.749Z,95.70
2019-02-09T10:20:27.736Z,94.90
2019-02-09T10:22:56.277Z,94.00
2019-02-09T10:25:25.254Z,93.60
2019-02-09T10:27:55.956Z,93.70
2019-02-09T10:30:32.439Z,92.40
2019-02-09T10:33:01.231Z,92.70
2019-02-09T10:35:30.059Z,91.00
2019-02-09T10:37:58.624Z,90.60
2019-02-09T10:40:37.613Z,90.50
2019-02-09T10:43:07.799Z,90.30
2019-02-09T10:45:36.723Z,88.90
2019-02-09T10:48:07.065Z,89.90
2019-02-09T10:50:38.513Z,87.50
2019-02-09T10:53:07.591Z,88.40
2019-02-09T10:55:36.254Z,86.00
2019-02-09T10:58:05.793Z,86.50
2019-02-09T11:00:40.093Z,86.40
2019-02-09T11:03:09.433Z,86.30
2019-02-09T11:05:38.391Z,85.10
2019-02-09T11:08:07.352Z,85.20
2019-02-09T11:10:36.428Z,85.00
2019-02-09T11:13:24.518Z,85.50
2019-02-09T11:15:53.250Z,85.60
2019-02-09T11:18:21.655Z,86.10
2019-02-09T11:20:50.130Z,86.00
2019-02-09T11:23:19.133Z,85.30
2019-02-09T11:25:47.854Z,85.40
2019-02-09T11:28:16.631Z,86.20
2019-02-09T11:30:45.530Z,84.00
2019-02-09T11:33:14.330Z,84.50
2019-02-09T11:35:42.934Z,84.00
2019-02-09T11:38:11.690Z,84.20
2019-02-09T11:40:40.615Z,82.20
2019-02-09T11:43:09.345Z,83.20
2019-02-09T11:45:38.393Z,83.60
2019-02-09T11:48:07.652Z,82.40
2019-02-09T11:50:36.368Z,82.90
2019-02-09T11:53:06.171Z,83.00
2019-02-09T11:55:34.869Z,83.40
2019-02-09T11:58:03.354Z,83.20
2019-02-09T12:00:37.934Z,82.80
2019-02-09T12:03:14.728Z,83.10
2019-02-09T12:05:37.499Z,83.60
2019-02-09T12:08:07.201Z,84.20
2019-02-09T12:10:35.717Z,84.50
2019-02-09T12:13:05.011Z,84.50
2019-02-09T12:15:35.461Z,83.90
2019-02-09T12:18:05.406Z,83.50
2019-02-09T12:20:33.833Z,83.10
2019-02-09T12:23:02.300Z,83.80
2019-02-09T12:25:36.182Z,82.40
2019-02-09T12:28:07.097Z,81.40
2019-02-09T12:30:37.950Z,81.90
2019-02-09T12:33:08.939Z,81.10
2019-02-09T12:35:37.650Z,80.40
2019-02-09T12:38:08.173Z,79.70
2019-02-09T12:40:37.638Z,80.10
2019-02-09T12:43:06.990Z,77.80
2019-02-09T12:45:38.157Z,76.60
2019-02-09T12:48:07.497Z,74.80
2019-02-09T12:50:36.594Z,75.20
2019-02-09T12:53:06.078Z,76.00
2019-02-09T12:55:34.600Z,76.70
2019-02-09T12:58:03.070Z,77.60
2019-02-09T13:00:34.384Z,79.30
2019-02-09T13:03:08.153Z,79.30
2019-02-09T13:05:36.934Z,80.30
2019-02-09T13:08:25.554Z,80.20
2019-02-09T13:10:54.280Z,80.70
2019-02-09T13:13:22.730Z,80.90
2019-02-09T13:15:51.454Z,80.70
2019-02-09T13:18:20.232Z,81.90
2019-02-09T13:20:48.642Z,83.40
2019-02-09T13:23:17.122Z,87.90
2019-02-09T13:25:45.646Z,90.90
2019-02-09T13:28:14.360Z,92.70
2019-02-09T13:30:43.213Z,94.00
2019-02-09T13:33:11.859Z,94.70
2019-02-09T13:35:40.697Z,95.30
2019-02-09T13:38:10.739Z,95.70
2019-02-09T13:40:39.571Z,95.50
2019-02-09T13:43:08.515Z,95.70
2019-02-09T13:45:39.483Z,95.10
2019-02-09T13:48:08.872Z,95.00
2019-02-09T13:50:38.042Z,95.20
2019-02-09T13:53:07.263Z,94.80
2019-02-09T13:55:36.175Z,94.10
2019-02-09T13:58:05.147Z,91.60
2019-02-09T14:00:34.406Z,91.20
2019-02-09T14:03:04.256Z,90.70
2019-02-09T14:05:33.334Z,90.20
2019-02-09T14:08:02.223Z,90.20
2019-02-09T14:10:30.927Z,90.00
2019-02-09T14:12:59.834Z,89.20
2019-02-09T14:15:33.406Z,87.80
2019-02-09T14:18:03.009Z,88.00
2019-02-09T14:20:31.622Z,86.90
2019-02-09T14:23:00.703Z,86.30
2019-02-09T14:25:29.170Z,85.60
2019-02-09T14:27:59.701Z,85.40
2019-02-09T14:30:33.451Z,84.50
2019-02-09T14:33:02.924Z,83.20
2019-02-09T14:35:31.382Z,83.10
2019-02-09T14:38:00.367Z,81.90
2019-02-09T14:40:31.511Z,82.30
2019-02-09T14:43:00.622Z,81.90
2019-02-09T14:45:43.139Z,82.30
2019-02-09T14:48:12.088Z,82.00
2019-02-09T14:50:40.936Z,82.00
2019-02-09T14:53:10.524Z,82.50
2019-02-09T14:55:39.815Z,82.90
2019-02-09T14:58:09.810Z,82.60
2019-02-09T15:00:41.310Z,81.70
2019-02-09T15:03:10.994Z,81.60
2019-02-09T15:05:40.081Z,81.20
2019-02-09T15:08:09.064Z,80.10
2019-02-09T15:10:37.619Z,80.00
2019-02-09T15:13:07.752Z,80.40
2019-02-09T15:15:42.334Z,80.30
2019-02-09T15:18:11.896Z,79.40
2019-02-09T15:20:46.342Z,78.40
2019-02-09T15:23:15.107Z,77.90
2019-02-09T15:25:43.815Z,77.90
2019-02-09T15:28:12.814Z,77.50
2019-02-09T15:30:41.695Z,77.30
2019-02-09T15:33:11.560Z,77.40
2019-02-09T15:35:40.376Z,78.10
2019-02-09T15:38:09.094Z,78.30
2019-02-09T15:40:37.965Z,78.70
2019-02-09T15:43:06.862Z,79.20
2019-02-09T15:45:35.694Z,79.90
2019-02-09T15:48:05.369Z,80.30
2019-02-09T15:50:33.831Z,81.10
2019-02-09T15:53:02.225Z,82.30
2019-02-09T15:55:30.850Z,83.50
2019-02-09T15:57:59.572Z,84.50
2019-02-09T16:00:32.591Z,85.30
2019-02-09T16:03:01.847Z,85.40
2019-02-09T16:05:43.477Z,86.10
2019-02-09T16:08:16.053Z,86.10
2019-02-09T16:10:51.186Z,86.20
2019-02-09T16:13:31.037Z,86.70
2019-02-09T16:16:07.715Z,87.20
2019-02-09T16:18:46.471Z,87.50
2019-02-09T16:21:23.209Z,88.60
2019-02-09T16:23:59.663Z,89.40
2019-02-09T16:26:37.202Z,89.40
2019-02-09T16:29:12.301Z,90.10
2019-02-09T16:31:47.954Z,90.20
2019-02-09T16:34:25.482Z,90.60
2019-02-09T16:37:01.281Z,90.80
2019-02-09T16:39:35.595Z,91.00
2019-02-09T16:42:07.658Z,91.20
2019-02-09T16:44:44.666Z,91.40
2019-02-09T16:47:38.032Z,91.40
2019-02-09T16:50:13.501Z,91.40
2019-02-09T16:52:49.638Z,91.80
2019-02-09T16:55:24.779Z,92.00
2019-02-09T16:58:03.014Z,92.10
2019-02-09T17:00:38.695Z,92.20
2019-02-09T17:03:12.682Z,92.20
2019-02-09T17:05:50.046Z,92.20
2019-02-09T17:08:25.608Z,92.30
2019-02-09T17:11:02.358Z,92.20
2019-02-09T17:13:37.544Z,92.20
2019-02-09T17:16:16.060Z,92.10
2019-02-09T17:18:58.571Z,92.20
2019-02-09T17:21:32.708Z,92.00
2019-02-09T17:24:11.668Z,92.00
2019-02-09T17:26:53.386Z,92.00
2019-02-09T17:29:33.366Z,91.80
2019-02-09T17:32:12.694Z,91.90
2019-02-09T17:34:48.399Z,91.60
2019-02-09T17:37:27.248Z,91.50
2019-02-09T17:40:10.337Z,91.40
2019-02-09T17:42:53.134Z,91.30
2019-02-09T17:45:33.132Z,91.20
2019-02-09T17:48:10.198Z,91.10
2019-02-09T17:50:51.902Z,91.00
2019-02-09T17:53:31.239Z,91.00
2019-02-09T17:56:11.287Z,90.90
2019-02-09T17:58:49.901Z,91.00
2019-02-09T18:01:32.107Z,90.80
2019-02-09T18:04:48.295Z,90.70
2019-02-09T18:06:57.225Z,90.70
2019-02-09T18:09:25.626Z,90.60
2019-02-09T18:11:54.414Z,90.50
2019-02-09T18:14:23.114Z,90.50
2019-02-09T18:16:51.894Z,90.40
2019-02-09T18:19:20.802Z,90.40
2019-02-09T18:21:49.250Z,90.40
2019-02-09T18:24:17.673Z,90.30
2019-02-09T18:26:46.436Z,90.30
2019-02-09T18:29:14.914Z,90.20
2019-02-09T18:31:43.686Z,90.30
2019-02-09T18:34:12.381Z,90.20
2019-02-09T18:36:40.894Z,90.20
2019-02-09T18:39:10.986Z,90.10
2019-02-09T18:41:39.440Z,90.20
2019-02-09T18:44:08.188Z,90.20
2019-02-09T18:46:36.931Z,90.40
2019-02-09T18:49:05.933Z,90.70
2019-02-09T18:51:34.711Z,90.50
2019-02-09T18:54:03.256Z,90.50
2019-02-09T18:56:31.706Z,90.70
2019-02-09T18:59:00.470Z,90.90
2019-02-09T19:01:29.578Z,90.80
2019-02-09T19:03:57.974Z,90.90
2019-02-09T19:06:26.762Z,91.00
2019-02-09T19:08:55.539Z,91.00
2019-02-09T19:11:24.288Z,91.20
2019-02-09T19:13:53.203Z,91.30
2019-02-09T19:16:23.183Z,91.40
2019-02-09T19:18:51.595Z,91.50
2019-02-09T19:21:20.368Z,91.60
2019-02-09T19:23:49.174Z,91.80
2019-02-09T19:26:18.171Z,92.00
2019-02-09T19:28:46.955Z,92.20
2019-02-09T19:31:15.723Z,92.30
2019-02-09T19:33:44.423Z,92.60
2019-02-09T19:36:13.220Z,92.70
2019-02-09T19:38:41.893Z,92.60
2019-02-09T19:41:10.375Z,92.70
2019-02-09T19:43:39.059Z,92.80
2019-02-09T19:46:08.783Z,92.80
2019-02-09T19:48:37.443Z,92.70
2019-02-09T19:51:06.250Z,92.80
2019-02-09T19:53:35.027Z,92.80
2019-02-09T19:56:03.804Z,92.70
2019-02-09T19:58:32.230Z,92.60
2019-02-09T20:01:00.698Z,92.60
2019-02-09T20:03:29.466Z,92.60
2019-02-09T20:05:57.946Z,92.40
2019-02-09T20:08:26.455Z,92.40
2019-02-09T20:10:55.231Z,92.40
2019-02-09T20:13:23.996Z,92.40
2019-02-09T20:15:52.703Z,92.80
2019-02-09T20:18:21.403Z,92.40
2019-02-09T20:20:50.160Z,92.30
2019-02-09T20:23:18.673Z,92.40
2019-02-09T20:25:47.087Z,92.40
2019-02-09T20:28:15.891Z,92.40
2019-02-09T20:30:44.806Z,92.40
2019-02-09T20:33:13.314Z,92.50
2019-02-09T20:35:42.157Z,92.60
2019-02-09T20:38:31.746Z,92.60
2019-02-09T20:41:02.820Z,92.70
2019-02-09T20:43:31.586Z,92.80
2019-02-09T20:46:00.360Z,92.80
2019-02-09T20:48:28.803Z,92.70
2019-02-09T20:50:57.227Z,92.70
2019-02-09T20:53:25.671Z,92.60
2019-02-09T20:55:54.375Z,92.50
2019-02-09T20:58:22.860Z,92.40
2019-02-09T21:00:51.388Z,92.30
2019-02-09T21:03:20.066Z,92.30
2019-02-09T21:05:48.814Z,92.20
2019-02-09T21:08:17.694Z,92.20
2019-02-09T21:10:47.010Z,92.20
2019-02-09T21:13:15.748Z,92.20
2019-02-09T21:15:44.565Z,92.20
2019-02-09T21:18:12.969Z,92.50
2019-02-09T21:20:41.729Z,92.60
2019-02-09T21:23:10.517Z,92.70
2019-02-09T21:25:41.458Z,92.80
2019-02-09T21:28:09.996Z,92.90
2019-02-09T21:30:38.746Z,93.00
2019-02-09T21:33:07.908Z,93.00
2019-02-09T21:35:43.668Z,93.20
2019-02-09T21:38:07.450Z,93.40
2019-02-09T21:40:36.154Z,93.50
2019-02-09T21:43:05.734Z,93.50
2019-02-09T21:45:34.624Z,93.50
2019-02-09T21:48:03.316Z,93.60
2019-02-09T21:50:38.858Z,93.60
2019-02-09T21:53:08.771Z,93.60
2019-02-09T21:55:37.773Z,93.80
2019-02-09T21:58:07.727Z,93.80
2019-02-09T22:00:46.307Z,93.60
2019-02-09T22:03:14.899Z,93.70
2019-02-09T22:05:51.460Z,93.70
2019-02-09T22:08:19.787Z,93.70
2019-02-09T22:10:46.882Z,93.60
2019-02-09T22:13:15.667Z,93.60
2019-02-09T22:15:44.742Z,93.50
2019-02-09T22:18:13.278Z,93.60
2019-02-09T22:20:41.677Z,93.50
2019-02-09T22:23:10.506Z,93.50
2019-02-09T22:25:39.312Z,93.30
2019-02-09T22:28:07.720Z,93.40
2019-02-09T22:30:36.566Z,93.40
2019-02-09T22:33:05.470Z,93.50
2019-02-09T22:35:34.085Z,93.50
2019-02-09T22:38:02.818Z,93.60
2019-02-09T22:40:36.617Z,93.60
2019-02-09T22:43:05.966Z,93.50
2019-02-09T22:45:34.513Z,93.60
2019-02-09T22:48:03.397Z,93.60
2019-02-09T22:50:34.875Z,93.60
2019-02-09T22:53:03.766Z,93.50
2019-02-09T22:55:32.947Z,93.50
2019-02-09T22:58:01.732Z,93.60
2019-02-09T23:00:52.876Z,93.40
2019-02-09T23:03:27.893Z,93.40
2019-02-09T23:06:14.083Z,93.30
2019-02-09T23:08:51.290Z,93.30
2019-02-09T23:11:20.029Z,93.20
2019-02-09T23:13:48.842Z,93.20
2019-02-09T23:16:20.391Z,93.30
2019-02-09T23:18:49.074Z,93.20
2019-02-09T23:21:17.859Z,93.20
2019-02-09T23:23:46.371Z,93.20
2019-02-09T23:26:15.122Z,93.10
2019-02-09T23:28:43.534Z,93.10
2019-02-09T23:31:11.942Z,93.00
2019-02-09T23:33:40.661Z,92.90
2019-02-09T23:36:16.160Z,92.90
2019-02-09T23:38:39.583Z,92.80
2019-02-09T23:41:08.033Z,92.80
2019-02-09T23:43:36.738Z,92.60
2019-02-09T23:46:05.177Z,92.90
2019-02-09T23:48:33.902Z,92.90
2019-02-09T23:51:02.315Z,93.00
2019-02-09T23:53:30.754Z,93.10
2019-02-09T23:55:59.447Z,93.00
2019-02-09T23:58:27.891Z,93.00
